createdAt,value
2019-05-14T00:01:42.259Z,6.13
2019-05-14T00:04:11.741Z,6.23
2019-05-14T00:06:41.839Z,6.07
2019-05-14T00:09:12.129Z,6.14
2019-05-14T00:11:42.333Z,6.16
2019-05-14T00:14:12.283Z,6.16
2019-05-14T00:16:42.391Z,6.15
2019-05-14T00:19:11.954Z,6.08
2019-05-14T00:21:42.312Z,6.02
2019-05-14T00:24:12.251Z,5.97
2019-05-14T00:26:42.544Z,5.98
2019-05-14T00:29:11.854Z,5.92
2019-05-14T00:31:42.523Z,5.90
2019-05-14T00:34:11.296Z,5.88
2019-05-14T00:36:42.169Z,5.80
2019-05-14T00:39:11.524Z,5.74
2019-05-14T00:41:41.964Z,5.90
2019-05-14T00:44:32.338Z,5.88
2019-05-14T00:47:02.155Z,5.81
2019-05-14T00:49:31.850Z,5.69
2019-05-14T00:52:02.299Z,5.59
2019-05-14T00:54:52.235Z,5.61
2019-05-14T00:57:22.540Z,5.54
2019-05-14T00:59:52.123Z,5.42
2019-05-14T01:02:22.443Z,5.40
2019-05-14T01:04:51.551Z,5.62
2019-05-14T01:07:42.354Z,5.79
2019-05-14T01:10:51.452Z,5.92
2019-05-14T01:13:21.909Z,5.63
2019-05-14T01:16:11.976Z,5.56
2019-05-14T01:18:41.730Z,5.58
2019-05-14T01:21:11.792Z,5.68
2019-05-14T01:26:52.240Z,5.49
2019-05-14T01:29:21.921Z,5.49
2019-05-14T01:35:01.378Z,5.42
2019-05-14T01:37:31.232Z,5.52
2019-05-14T01:40:01.144Z,5.44
2019-05-14T01:42:32.071Z,5.59
2019-05-14T01:45:27.251Z,5.48
2019-05-14T01:47:52.074Z,5.33
2019-05-14T01:50:22.555Z,5.20
2019-05-14T01:52:52.175Z,5.03
2019-05-14T01:55:22.827Z,5.13
2019-05-14T01:57:51.986Z,4.97
2019-05-14T02:00:22.025Z,4.98
2019-05-14T02:02:52.451Z,4.85
2019-05-14T02:05:22.890Z,4.70
2019-05-14T02:08:12.123Z,4.61
2019-05-14T02:11:01.624Z,4.60
2019-05-14T02:13:32.349Z,4.49
2019-05-14T02:16:02.232Z,4.47
2019-05-14T02:18:33.003Z,4.45
2019-05-14T02:21:22.947Z,4.50
2019-05-14T02:23:53.465Z,4.44
2019-05-14T02:26:42.463Z,4.52
2019-05-14T02:29:12.483Z,4.73
2019-05-14T02:31:42.626Z,4.80
2019-05-14T02:36:49.417Z,4.66
2019-05-14T02:39:19.637Z,4.54
2019-05-14T02:41:49.984Z,4.47
2019-05-14T02:47:12.816Z,4.25
2019-05-14T02:49:41.480Z,4.23
2019-05-14T02:54:45.430Z,4.13
2019-05-14T02:57:14.289Z,4.10
2019-05-14T02:59:43.596Z,4.10
2019-05-14T03:02:32.194Z,4.05
2019-05-14T03:07:50.582Z,3.95
2019-05-14T03:10:19.985Z,4.02
2019-05-14T03:13:09.568Z,3.90
2019-05-14T03:15:39.571Z,3.84
2019-05-14T03:18:09.196Z,3.81
2019-05-14T03:20:39.228Z,3.72
2019-05-14T03:23:15.635Z,3.67
2019-05-14T03:25:40.331Z,3.63
2019-05-14T03:28:09.590Z,4.32
2019-05-14T03:30:42.387Z,4.18
2019-05-14T03:33:13.246Z,4.43
2019-05-14T03:36:08.223Z,4.65
2019-05-14T03:38:30.486Z,4.75
2019-05-14T03:41:00.653Z,4.69
2019-05-14T03:44:10.719Z,4.66
2019-05-14T03:46:49.738Z,4.41
2019-05-14T03:49:10.701Z,4.10
2019-05-14T03:51:39.690Z,4.09
2019-05-14T03:54:12.638Z,4.06
2019-05-14T03:56:40.104Z,3.98
2019-05-14T03:59:09.847Z,3.84
2019-05-14T04:01:40.475Z,3.74
2019-05-14T04:04:30.946Z,3.70
2019-05-14T04:07:39.588Z,3.71
2019-05-14T04:10:10.277Z,3.71
2019-05-14T04:13:19.957Z,3.72
2019-05-14T04:16:09.575Z,3.76
2019-05-14T04:22:12.319Z,3.79
2019-05-14T04:25:21.149Z,3.79
2019-05-14T04:28:30.073Z,3.77
2019-05-14T04:31:00.552Z,3.79
2019-05-14T04:33:30.692Z,3.90
2019-05-14T04:36:00.912Z,3.96
2019-05-14T04:38:30.454Z,4.00
2019-05-14T04:41:00.265Z,4.09
2019-05-14T04:46:20.065Z,4.31
2019-05-14T04:48:50.935Z,4.30
2019-05-14T04:51:20.306Z,4.15
2019-05-14T04:53:50.177Z,4.26
2019-05-14T04:56:19.915Z,4.33
2019-05-14T04:58:50.527Z,4.73
2019-05-14T05:01:21.085Z,4.79
2019-05-14T05:06:39.835Z,4.83
2019-05-14T05:09:50.171Z,4.90
2019-05-14T05:12:19.989Z,4.98
2019-05-14T05:14:49.441Z,4.89
2019-05-14T05:17:19.755Z,4.88
2019-05-14T05:19:51.537Z,4.90
2019-05-14T05:22:19.905Z,5.13
2019-05-14T05:27:38.323Z,5.62
2019-05-14T05:30:49.067Z,5.58
2019-05-14T05:33:18.742Z,5.82
2019-05-14T05:35:48.728Z,5.91
2019-05-14T05:38:18.401Z,5.99
2019-05-14T05:40:48.605Z,6.10
2019-05-14T05:43:19.185Z,6.36
2019-05-14T05:45:48.667Z,6.42
2019-05-14T05:51:13.300Z,6.53
2019-05-14T05:53:41.896Z,6.63
2019-05-14T05:56:10.533Z,6.73
2019-05-14T05:58:39.874Z,6.77
2019-05-14T06:01:09.920Z,6.92
2019-05-14T06:03:39.822Z,6.89
2019-05-14T06:06:13.380Z,6.97
2019-05-14T06:08:39.056Z,7.07
2019-05-14T06:11:08.402Z,7.01
2019-05-14T06:13:39.132Z,7.22
2019-05-14T06:16:09.573Z,7.24
2019-05-14T06:18:39.454Z,7.36
2019-05-14T06:21:09.385Z,7.40
2019-05-14T06:23:39.432Z,7.44
2019-05-14T06:26:11.602Z,7.55
2019-05-14T06:28:40.767Z,7.73
2019-05-14T06:31:09.947Z,7.81
2019-05-14T06:33:39.660Z,7.84
2019-05-14T06:36:49.412Z,7.89
2019-05-14T06:39:18.366Z,8.01
2019-05-14T06:41:49.059Z,8.12
2019-05-14T06:44:18.935Z,8.28
2019-05-14T06:46:48.730Z,8.61
2019-05-14T06:49:18.310Z,9.33
2019-05-14T06:51:49.045Z,11.18
2019-05-14T06:54:19.611Z,13.22
2019-05-14T06:56:49.174Z,14.96
2019-05-14T06:59:18.286Z,16.38
2019-05-14T07:01:49.003Z,17.46
2019-05-14T07:04:18.534Z,18.70
2019-05-14T07:06:48.525Z,19.51
2019-05-14T07:09:18.457Z,20.67
2019-05-14T07:11:49.116Z,20.36
2019-05-14T07:14:18.937Z,20.04
2019-05-14T07:16:48.893Z,20.40
2019-05-14T07:19:19.231Z,20.00
2019-05-14T07:22:08.937Z,18.64
2019-05-14T07:24:40.436Z,20.26
2019-05-14T07:27:09.390Z,20.72
2019-05-14T07:29:38.882Z,20.24
2019-05-14T07:32:09.185Z,20.30
2019-05-14T07:34:39.134Z,20.47
2019-05-14T07:37:09.423Z,21.10
2019-05-14T07:39:58.027Z,20.43
2019-05-14T07:42:28.945Z,20.30
2019-05-14T07:44:58.893Z,19.98
2019-05-14T07:47:29.229Z,19.99
2019-05-14T07:49:59.234Z,20.75
2019-05-14T07:52:28.502Z,19.75
2019-05-14T07:54:58.763Z,19.69
2019-05-14T07:57:28.705Z,19.16
2019-05-14T07:59:58.821Z,20.23
2019-05-14T08:02:29.038Z,20.03
2019-05-14T08:04:58.142Z,19.85
2019-05-14T08:07:48.154Z,19.96
2019-05-14T08:10:18.586Z,20.25
2019-05-14T08:12:48.656Z,19.96
2019-05-14T08:15:58.577Z,19.67
2019-05-14T08:18:29.107Z,19.25
2019-05-14T08:20:59.161Z,18.94
2019-05-14T08:23:28.347Z,18.21
2019-05-14T08:25:58.832Z,18.21
2019-05-14T08:28:29.140Z,16.96
2019-05-14T08:30:59.219Z,15.49
2019-05-14T08:33:29.014Z,15.11
2019-05-14T08:35:58.403Z,14.67
2019-05-14T08:38:28.624Z,14.34
2019-05-14T08:40:58.894Z,13.99
2019-05-14T08:43:29.105Z,13.75
2019-05-14T08:45:58.690Z,13.43
2019-05-14T08:48:29.573Z,12.98
2019-05-14T08:50:58.900Z,12.74
2019-05-14T08:53:28.807Z,12.79
2019-05-14T08:55:58.855Z,12.74
2019-05-14T08:58:30.120Z,12.78
2019-05-14T09:00:58.924Z,12.84
2019-05-14T09:04:09.139Z,12.57
2019-05-14T09:06:58.470Z,12.43
2019-05-14T09:09:29.041Z,12.41
2019-05-14T09:11:59.714Z,12.35
2019-05-14T09:14:28.242Z,12.52
2019-05-14T09:16:59.879Z,12.83
2019-05-14T09:19:28.880Z,12.90
2019-05-14T09:21:58.840Z,12.81
2019-05-14T09:24:29.070Z,12.70
2019-05-14T09:26:59.195Z,13.20
2019-05-14T09:29:29.758Z,13.48
2019-05-14T09:31:59.347Z,13.57
2019-05-14T09:34:29.344Z,13.71
2019-05-14T09:36:59.414Z,13.60
2019-05-14T09:39:48.838Z,13.46
2019-05-14T09:42:19.455Z,13.08
2019-05-14T09:44:49.074Z,12.80
2019-05-14T09:47:19.081Z,12.79
2019-05-14T09:49:49.280Z,12.74
2019-05-14T09:52:18.667Z,12.76
2019-05-14T09:54:49.621Z,12.69
2019-05-14T09:57:19.049Z,12.63
2019-05-14T09:59:49.099Z,12.82
2019-05-14T10:02:17.721Z,12.91
2019-05-14T10:04:48.982Z,13.00
2019-05-14T10:07:16.957Z,12.90
2019-05-14T10:09:45.589Z,13.10
2019-05-14T10:12:14.264Z,13.25
2019-05-14T10:14:42.822Z,13.48
2019-05-14T10:17:11.513Z,13.74
2019-05-14T10:19:40.085Z,13.61
2019-05-14T10:22:08.775Z,13.51
2019-05-14T10:24:38.657Z,13.02
2019-05-14T10:27:08.945Z,13.12
2019-05-14T10:29:39.467Z,13.40
2019-05-14T10:32:09.063Z,13.43
2019-05-14T10:34:37.725Z,13.47
2019-05-14T10:37:08.665Z,14.05
2019-05-14T10:39:39.084Z,14.45
2019-05-14T10:42:08.853Z,14.57
2019-05-14T10:44:38.732Z,14.45
2019-05-14T10:47:29.231Z,14.36
2019-05-14T10:49:59.000Z,14.47
2019-05-14T10:52:28.898Z,14.47
2019-05-14T10:54:59.035Z,14.87
2019-05-14T10:57:28.958Z,14.53
2019-05-14T10:59:59.114Z,14.94
2019-05-14T11:02:29.315Z,14.97
2019-05-14T11:04:59.487Z,14.84
2019-05-14T11:07:29.272Z,15.15
2019-05-14T11:09:58.349Z,15.35
2019-05-14T11:12:29.549Z,14.59
2019-05-14T11:14:57.440Z,13.91
2019-05-14T11:17:28.860Z,13.91
2019-05-14T11:19:58.547Z,14.04
2019-05-14T11:22:28.889Z,14.41
2019-05-14T11:24:59.155Z,15.42
2019-05-14T11:27:29.247Z,16.10
2019-05-14T11:29:58.662Z,15.99
2019-05-14T11:32:29.130Z,16.15
2019-05-14T11:34:59.212Z,16.09
2019-05-14T11:37:29.078Z,15.43
2019-05-14T11:39:58.168Z,15.39
2019-05-14T11:42:31.376Z,15.93
2019-05-14T11:44:58.680Z,16.00
2019-05-14T11:47:27.275Z,15.33
2019-05-14T11:49:59.016Z,15.04
2019-05-14T11:52:28.622Z,15.00
2019-05-14T11:54:58.491Z,14.52
2019-05-14T11:57:27.012Z,14.29
2019-05-14T11:59:58.003Z,14.85
2019-05-14T12:02:26.115Z,15.32
2019-05-14T12:04:54.738Z,16.11
2019-05-14T12:07:23.376Z,15.98
2019-05-14T12:09:52.459Z,16.22
2019-05-14T12:12:22.471Z,16.26
2019-05-14T12:14:51.115Z,15.80
2019-05-14T12:17:19.794Z,15.27
2019-05-14T12:19:48.651Z,14.75
2019-05-14T12:22:19.257Z,14.32
2019-05-14T12:24:49.648Z,14.31
2019-05-14T12:27:19.660Z,13.91
2019-05-14T12:29:49.837Z,13.65
2019-05-14T12:32:19.058Z,13.77
2019-05-14T12:34:49.142Z,14.82
2019-05-14T12:37:18.622Z,15.65
2019-05-14T12:39:48.100Z,15.77
2019-05-14T12:42:19.260Z,15.41
2019-05-14T12:44:47.166Z,14.75
2019-05-14T12:47:18.597Z,14.83
2019-05-14T12:49:48.160Z,14.52
2019-05-14T12:52:25.328Z,14.50
2019-05-14T12:54:46.957Z,14.49
2019-05-14T12:57:15.680Z,14.45
2019-05-14T12:59:44.356Z,14.70
2019-05-14T13:02:13.051Z,14.71
2019-05-14T13:04:41.688Z,14.81
2019-05-14T13:07:10.365Z,15.01
2019-05-14T13:09:38.923Z,14.92
2019-05-14T13:12:11.311Z,15.37
2019-05-14T13:14:39.430Z,15.99
2019-05-14T13:17:09.280Z,16.42
2019-05-14T13:19:38.932Z,16.90
2019-05-14T13:22:13.652Z,16.98
2019-05-14T13:24:39.438Z,16.84
2019-05-14T13:27:09.475Z,16.71
2019-05-14T13:29:38.825Z,16.02
2019-05-14T13:32:12.010Z,16.25
2019-05-14T13:34:39.599Z,16.60
2019-05-14T13:37:08.217Z,16.22
2019-05-14T13:40:20.811Z,15.68
2019-05-14T13:42:49.187Z,15.53
2019-05-14T13:48:12.323Z,14.71
2019-05-14T13:50:41.091Z,14.62
2019-05-14T13:53:12.866Z,15.05
2019-05-14T13:55:46.927Z,15.44
2019-05-14T13:58:10.458Z,15.30
2019-05-14T14:00:39.141Z,15.31
2019-05-14T14:03:10.032Z,14.97
2019-05-14T14:05:39.327Z,14.66
2019-05-14T14:08:08.911Z,14.11
2019-05-14T14:10:45.031Z,13.67
2019-05-14T14:13:11.312Z,14.05
2019-05-14T14:15:39.746Z,14.86
2019-05-14T14:18:08.438Z,15.51
2019-05-14T14:20:39.271Z,15.38
2019-05-14T14:23:18.966Z,15.10
2019-05-14T14:25:39.489Z,15.18
2019-05-14T14:28:09.914Z,15.39
2019-05-14T14:33:48.729Z,16.28
2019-05-14T14:36:19.610Z,16.20
2019-05-14T14:38:49.457Z,15.56
2019-05-14T14:41:19.350Z,14.42
2019-05-14T14:43:53.451Z,13.98
2019-05-14T14:46:19.591Z,14.10
2019-05-14T14:48:49.579Z,13.76
2019-05-14T14:51:19.668Z,14.29
2019-05-14T14:53:59.067Z,14.94
2019-05-14T14:56:20.142Z,15.28
2019-05-14T14:58:49.490Z,15.46
2019-05-14T15:01:19.950Z,14.96
2019-05-14T15:03:50.783Z,15.09
2019-05-14T15:06:19.934Z,15.04
2019-05-14T15:08:49.696Z,15.22
2019-05-14T15:11:19.041Z,15.66
2019-05-14T15:13:48.309Z,15.64
2019-05-14T15:16:20.081Z,15.22
2019-05-14T15:18:49.703Z,15.60
2019-05-14T15:21:19.300Z,15.16
2019-05-14T15:24:05.928Z,14.83
2019-05-14T15:26:19.582Z,15.08
2019-05-14T15:28:49.490Z,15.18
2019-05-14T15:31:19.165Z,15.46
2019-05-14T15:33:51.027Z,15.27
2019-05-14T15:36:41.341Z,15.39
2019-05-14T15:39:49.182Z,15.27
2019-05-14T15:42:19.377Z,15.06
2019-05-14T15:44:55.749Z,15.02
2019-05-14T15:47:19.789Z,15.03
2019-05-14T15:49:48.996Z,14.80
2019-05-14T15:52:19.373Z,14.62
2019-05-14T15:54:50.575Z,14.43
2019-05-14T15:57:19.602Z,13.81
2019-05-14T15:59:48.218Z,13.57
2019-05-14T16:02:19.882Z,13.43
2019-05-14T16:04:47.244Z,13.21
2019-05-14T16:07:18.473Z,12.88
2019-05-14T16:09:49.109Z,12.81
2019-05-14T16:12:19.613Z,12.88
2019-05-14T16:14:48.898Z,13.34
2019-05-14T16:17:24.329Z,13.60
2019-05-14T16:19:48.754Z,13.90
2019-05-14T16:22:19.451Z,13.70
2019-05-14T16:24:56.394Z,13.45
2019-05-14T16:27:19.766Z,13.09
2019-05-14T16:29:49.490Z,13.00
2019-05-14T16:32:18.275Z,12.75
2019-05-14T16:34:48.889Z,12.90
2019-05-14T16:37:18.209Z,13.02
2019-05-14T16:39:48.839Z,13.43
2019-05-14T16:42:20.586Z,13.61
2019-05-14T16:44:48.566Z,13.87
2019-05-14T16:47:18.821Z,13.95
2019-05-14T16:49:48.232Z,14.06
2019-05-14T16:52:18.199Z,13.93
2019-05-14T16:54:48.788Z,13.57
2019-05-14T16:57:18.607Z,13.15
2019-05-14T16:59:49.683Z,12.87
2019-05-14T17:02:19.149Z,12.61
2019-05-14T17:04:48.473Z,12.32
2019-05-14T17:07:18.236Z,12.28
2019-05-14T17:09:49.375Z,12.16
2019-05-14T17:12:22.110Z,12.04
2019-05-14T17:14:48.301Z,12.06
2019-05-14T17:17:16.937Z,12.00
2019-05-14T17:19:47.947Z,11.95
2019-05-14T17:22:27.692Z,12.12
2019-05-14T17:24:48.885Z,12.11
2019-05-14T17:27:16.741Z,12.04
2019-05-14T17:29:45.379Z,12.12
2019-05-14T17:32:14.034Z,12.20
2019-05-14T17:34:42.634Z,12.32
2019-05-14T17:37:30.577Z,12.43
2019-05-14T17:39:59.246Z,12.39
2019-05-14T17:42:28.513Z,12.48
2019-05-14T17:44:58.921Z,12.62
2019-05-14T17:47:49.100Z,12.68
2019-05-14T17:50:18.522Z,12.68
2019-05-14T17:52:55.312Z,12.59
2019-05-14T17:55:18.751Z,12.39
2019-05-14T17:57:56.719Z,12.29
2019-05-14T18:00:58.284Z,12.24
2019-05-14T18:03:29.048Z,11.98
2019-05-14T18:05:58.103Z,11.92
2019-05-14T18:08:30.006Z,11.82
2019-05-14T18:11:01.083Z,11.65
2019-05-14T18:13:28.447Z,11.70
2019-05-14T18:15:58.074Z,11.55
2019-05-14T18:18:29.119Z,11.47
2019-05-14T18:20:58.269Z,11.34
2019-05-14T18:23:28.950Z,11.26
2019-05-14T18:26:08.092Z,11.22
2019-05-14T18:28:28.964Z,11.04
2019-05-14T18:30:58.751Z,11.04
2019-05-14T18:33:31.208Z,10.93
2019-05-14T18:35:59.018Z,10.86
2019-05-14T18:38:29.116Z,10.83
2019-05-14T18:40:58.637Z,10.65
2019-05-14T18:43:28.930Z,10.66
2019-05-14T18:45:58.811Z,10.34
2019-05-14T18:48:29.190Z,10.44
2019-05-14T18:50:59.280Z,10.36
2019-05-14T18:53:28.259Z,10.30
2019-05-14T18:55:59.494Z,10.32
2019-05-14T18:58:29.306Z,10.31
2019-05-14T19:00:58.593Z,10.30
2019-05-14T19:03:28.686Z,10.24
2019-05-14T19:05:58.803Z,10.33
2019-05-14T19:08:29.053Z,10.12
2019-05-14T19:10:59.322Z,10.02
2019-05-14T19:13:28.250Z,10.05
2019-05-14T19:15:59.220Z,10.01
2019-05-14T19:18:28.911Z,9.98
2019-05-14T19:20:59.195Z,9.92
2019-05-14T19:23:28.945Z,9.83
2019-05-14T19:25:59.138Z,9.82
2019-05-14T19:28:28.843Z,9.73
2019-05-14T19:30:59.622Z,9.59
2019-05-14T19:33:28.702Z,9.63
2019-05-14T19:35:58.447Z,9.46
2019-05-14T19:38:27.083Z,9.56
2019-05-14T19:41:02.632Z,9.47
2019-05-14T19:43:31.387Z,9.41
2019-05-14T19:46:00.035Z,9.38
2019-05-14T19:48:32.656Z,9.34
2019-05-14T19:51:18.808Z,9.24
2019-05-14T19:53:52.302Z,9.17
2019-05-14T19:56:19.165Z,9.00
2019-05-14T19:58:48.575Z,8.72
2019-05-14T20:01:19.444Z,8.77
2019-05-14T20:04:09.570Z,8.82
2019-05-14T20:06:39.075Z,8.74
2019-05-14T20:09:48.317Z,8.61
2019-05-14T20:12:18.327Z,8.63
2019-05-14T20:14:49.049Z,8.39
2019-05-14T20:17:19.386Z,8.38
2019-05-14T20:19:49.386Z,8.34
2019-05-14T20:22:19.293Z,8.38
2019-05-14T20:24:48.399Z,8.44
2019-05-14T20:27:58.792Z,8.32
2019-05-14T20:30:29.476Z,8.23
2019-05-14T20:32:59.407Z,8.06
2019-05-14T20:35:34.641Z,8.12
2019-05-14T20:37:59.848Z,7.93
2019-05-14T20:40:28.593Z,8.06
2019-05-14T20:42:58.929Z,8.07
2019-05-14T20:45:28.948Z,7.96
2019-05-14T20:47:58.668Z,7.98
2019-05-14T20:50:29.099Z,7.98
2019-05-14T20:52:59.356Z,7.90
2019-05-14T20:55:29.377Z,7.92
2019-05-14T20:57:58.728Z,7.88
2019-05-14T21:00:29.157Z,7.95
2019-05-14T21:02:59.544Z,7.79
2019-05-14T21:05:29.315Z,7.74
2019-05-14T21:07:58.981Z,7.63
2019-05-14T21:10:29.110Z,7.62
2019-05-14T21:12:58.986Z,7.59
2019-05-14T21:15:28.662Z,7.60
2019-05-14T21:17:59.674Z,7.49
2019-05-14T21:20:28.509Z,7.35
2019-05-14T21:22:58.774Z,7.48
2019-05-14T21:25:29.751Z,7.54
2019-05-14T21:27:59.358Z,7.40
2019-05-14T21:30:29.686Z,7.43
2019-05-14T21:33:00.318Z,7.37
2019-05-14T21:35:29.279Z,7.52
2019-05-14T21:37:59.679Z,7.59
2019-05-14T21:40:32.157Z,7.66
2019-05-14T21:43:00.014Z,7.48
2019-05-14T21:45:28.709Z,7.46
2019-05-14T21:47:59.478Z,7.47
2019-05-14T21:50:28.917Z,7.45
2019-05-14T21:53:19.072Z,7.37
2019-05-14T21:55:47.960Z,7.27
2019-05-14T21:58:19.541Z,7.16
2019-05-14T22:01:27.700Z,7.29
2019-05-14T22:03:59.154Z,7.21
2019-05-14T22:06:29.108Z,7.28
2019-05-14T22:08:59.166Z,7.18
2019-05-14T22:11:28.363Z,7.13
2019-05-14T22:13:58.297Z,7.16
2019-05-14T22:16:28.237Z,7.15
2019-05-14T22:18:59.349Z,7.04
2019-05-14T22:21:28.940Z,6.98
2019-05-14T22:23:59.205Z,7.03
2019-05-14T22:26:28.371Z,6.97
2019-05-14T22:28:58.700Z,6.96
2019-05-14T22:31:28.936Z,6.88
2019-05-14T22:33:58.333Z,6.83
2019-05-14T22:36:29.378Z,6.71
2019-05-14T22:38:58.575Z,6.47
2019-05-14T22:41:29.168Z,6.37
2019-05-14T22:44:00.000Z,6.38
2019-05-14T22:46:27.877Z,6.48
2019-05-14T22:48:58.680Z,6.36
2019-05-14T22:54:35.116Z,6.34
2019-05-14T22:57:03.761Z,6.21
2019-05-14T22:59:32.517Z,6.17
2019-05-14T23:02:01.366Z,6.22
2019-05-14T23:04:30.152Z,6.16
2019-05-14T23:06:58.974Z,6.14
2019-05-14T23:09:27.762Z,6.17
2019-05-14T23:11:58.794Z,6.20
2019-05-14T23:14:28.215Z,6.21
2019-05-14T23:16:58.037Z,6.26
2019-05-14T23:19:27.542Z,6.29
2019-05-14T23:22:18.119Z,6.20
2019-05-14T23:27:38.328Z,6.23
2019-05-14T23:30:06.632Z,6.24
2019-05-14T23:32:35.287Z,6.24
2019-05-14T23:35:24.852Z,6.18
2019-05-14T23:37:53.586Z,6.23
2019-05-14T23:41:02.247Z,6.20
2019-05-14T23:43:50.525Z,6.19
2019-05-14T23:46:20.084Z,6.13
2019-05-14T23:48:48.678Z,6.15
2019-05-14T23:51:18.231Z,6.10
2019-05-14T23:53:48.503Z,6.19
2019-05-14T23:56:19.412Z,6.02
2019-05-14T23:58:55.849Z,6.03
